sensor_id;sensor_type;location;lat;lon;timestamp;temperature;humidity
19256;DHT22;9762;52.490;13.410;2023-07-29T00:01:11;23.50;98.10
19256;DHT22;9762;52.490;13.410;2023-07-29T00:03:37;23.50;98.20
19256;DHT22;9762;52.490;13.410;2023-07-29T00:06:03;23.50;98.20
19256;DHT22;9762;52.490;13.410;2023-07-29T00:08:28;23.50;98.10
19256;DHT22;9762;52.490;13.410;2023-07-29T00:10:54;23.40;98.10
19256;DHT22;9762;52.490;13.410;2023-07-29T00:13:20;23.40;98.20
19256;DHT22;9762;52.490;13.410;2023-07-29T00:15:45;23.40;98.30
19256;DHT22;9762;52.490;13.410;2023-07-29T00:18:11;23.40;98.40
19256;DHT22;9762;52.490;13.410;2023-07-29T00:20:36;23.40;98.30
19256;DHT22;9762;52.490;13.410;2023-07-29T00:23:02;23.40;98.20
19256;DHT22;9762;52.490;13.410;2023-07-29T00:25:28;23.40;98.20
19256;DHT22;9762;52.490;13.410;2023-07-29T00:27:56;23.30;98.30
19256;DHT22;9762;52.490;13.410;2023-07-29T00:30:22;23.30;98.40
19256;DHT22;9762;52.490;13.410;2023-07-29T00:32:47;23.30;98.30
19256;DHT22;9762;52.490;13.410;2023-07-29T00:35:13;23.30;98.70
19256;DHT22;9762;52.490;13.410;2023-07-29T00:37:39;23.30;98.30
19256;DHT22;9762;52.490;13.410;2023-07-29T00:40:14;23.30;98.30
19256;DHT22;9762;52.490;13.410;2023-07-29T00:42:41;23.30;98.40
19256;DHT22;9762;52.490;13.410;2023-07-29T00:45:09;23.20;98.30
19256;DHT22;9762;52.490;13.410;2023-07-29T00:47:34;23.20;98.40
19256;DHT22;9762;52.490;13.410;2023-07-29T00:50:00;23.20;98.30
19256;DHT22;9762;52.490;13.410;2023-07-29T00:52:26;23.20;98.20
19256;DHT22;9762;52.490;13.410;2023-07-29T00:54:52;23.20;98.20
19256;DHT22;9762;52.490;13.410;2023-07-29T00:57:18;23.20;98.20
19256;DHT22;9762;52.490;13.410;2023-07-29T00:59:44;23.20;98.20
19256;DHT22;9762;52.490;13.410;2023-07-29T01:02:10;23.20;98.30
19256;DHT22;9762;52.490;13.410;2023-07-29T01:04:36;23.10;98.30
19256;DHT22;9762;52.490;13.410;2023-07-29T01:10:09;23.10;98.10
19256;DHT22;9762;52.490;13.410;2023-07-29T01:12:49;23.10;98.10
19256;DHT22;9762;52.490;13.410;2023-07-29T01:15:31;23.10;98.30
19256;DHT22;9762;52.490;13.410;2023-07-29T01:18:05;23.00;98.20
19256;DHT22;9762;52.490;13.410;2023-07-29T01:20:34;23.00;98.20
19256;DHT22;9762;52.490;13.410;2023-07-29T01:23:02;23.00;98.20
19256;DHT22;9762;52.490;13.410;2023-07-29T01:25:27;23.00;98.20
19256;DHT22;9762;52.490;13.410;2023-07-29T01:27:53;23.00;98.10
19256;DHT22;9762;52.490;13.410;2023-07-29T01:30:24;23.00;98.20
19256;DHT22;9762;52.490;13.410;2023-07-29T01:32:54;23.00;98.10
19256;DHT22;9762;52.490;13.410;2023-07-29T01:35:31;23.00;98.10
19256;DHT22;9762;52.490;13.410;2023-07-29T01:38:05;22.90;98.10
19256;DHT22;9762;52.490;13.410;2023-07-29T01:40:33;22.90;98.10
19256;DHT22;9762;52.490;13.410;2023-07-29T01:42:59;22.90;98.40
19256;DHT22;9762;52.490;13.410;2023-07-29T01:45:25;22.90;98.10
19256;DHT22;9762;52.490;13.410;2023-07-29T01:47:51;22.90;98.20
19256;DHT22;9762;52.490;13.410;2023-07-29T01:50:17;22.90;98.30
19256;DHT22;9762;52.490;13.410;2023-07-29T01:52:42;22.80;98.30
19256;DHT22;9762;52.490;13.410;2023-07-29T01:55:08;22.80;98.30
19256;DHT22;9762;52.490;13.410;2023-07-29T01:57:34;22.80;98.30
19256;DHT22;9762;52.490;13.410;2023-07-29T01:59:59;22.80;98.30
19256;DHT22;9762;52.490;13.410;2023-07-29T02:02:25;22.80;98.60
19256;DHT22;9762;52.490;13.410;2023-07-29T02:04:51;22.80;98.50
19256;DHT22;9762;52.490;13.410;2023-07-29T02:07:18;22.80;98.40
19256;DHT22;9762;52.490;13.410;2023-07-29T02:09:44;22.80;98.40
19256;DHT22;9762;52.490;13.410;2023-07-29T02:12:10;22.70;98.30
19256;DHT22;9762;52.490;13.410;2023-07-29T02:14:36;22.80;98.60
19256;DHT22;9762;52.490;13.410;2023-07-29T02:17:01;22.70;98.30
19256;DHT22;9762;52.490;13.410;2023-07-29T02:19:27;22.70;98.40
19256;DHT22;9762;52.490;13.410;2023-07-29T02:21:52;22.70;98.40
19256;DHT22;9762;52.490;13.410;2023-07-29T02:24:18;22.70;98.30
19256;DHT22;9762;52.490;13.410;2023-07-29T02:26:44;22.70;98.30
19256;DHT22;9762;52.490;13.410;2023-07-29T02:29:09;22.60;98.30
19256;DHT22;9762;52.490;13.410;2023-07-29T02:31:35;22.60;98.20
19256;DHT22;9762;52.490;13.410;2023-07-29T02:34:03;22.60;98.20
19256;DHT22;9762;52.490;13.410;2023-07-29T02:36:28;22.60;98.30
19256;DHT22;9762;52.490;13.410;2023-07-29T02:38:54;22.60;98.30
19256;DHT22;9762;52.490;13.410;2023-07-29T02:41:20;22.60;98.30
19256;DHT22;9762;52.490;13.410;2023-07-29T02:43:50;22.60;98.20
19256;DHT22;9762;52.490;13.410;2023-07-29T02:46:16;22.60;98.20
19256;DHT22;9762;52.490;13.410;2023-07-29T02:48:42;22.60;98.20
19256;DHT22;9762;52.490;13.410;2023-07-29T02:51:08;22.50;98.20
19256;DHT22;9762;52.490;13.410;2023-07-29T02:53:34;22.50;98.30
19256;DHT22;9762;52.490;13.410;2023-07-29T02:56:02;22.50;98.30
19256;DHT22;9762;52.490;13.410;2023-07-29T02:58:28;22.50;98.30
19256;DHT22;9762;52.490;13.410;2023-07-29T03:01:03;22.50;98.20
19256;DHT22;9762;52.490;13.410;2023-07-29T03:03:30;22.50;98.30
19256;DHT22;9762;52.490;13.410;2023-07-29T03:06:10;22.50;98.50
19256;DHT22;9762;52.490;13.410;2023-07-29T03:08:36;22.50;98.70
19256;DHT22;9762;52.490;13.410;2023-07-29T03:11:10;22.50;98.70
19256;DHT22;9762;52.490;13.410;2023-07-29T03:13:36;22.40;98.70
19256;DHT22;9762;52.490;13.410;2023-07-29T03:16:13;22.40;98.70
19256;DHT22;9762;52.490;13.410;2023-07-29T03:18:39;22.40;98.80
19256;DHT22;9762;52.490;13.410;2023-07-29T03:21:05;22.50;98.80
19256;DHT22;9762;52.490;13.410;2023-07-29T03:23:32;22.40;98.90
19256;DHT22;9762;52.490;13.410;2023-07-29T03:26:02;22.40;98.80
19256;DHT22;9762;52.490;13.410;2023-07-29T03:28:32;22.40;98.70
19256;DHT22;9762;52.490;13.410;2023-07-29T03:30:58;22.40;98.60
19256;DHT22;9762;52.490;13.410;2023-07-29T03:33:25;22.40;98.60
19256;DHT22;9762;52.490;13.410;2023-07-29T03:35:51;22.40;98.60
19256;DHT22;9762;52.490;13.410;2023-07-29T03:38:16;22.40;98.50
19256;DHT22;9762;52.490;13.410;2023-07-29T03:40:42;22.40;98.50
19256;DHT22;9762;52.490;13.410;2023-07-29T03:43:08;22.40;98.50
19256;DHT22;9762;52.490;13.410;2023-07-29T03:45:35;22.40;98.50
19256;DHT22;9762;52.490;13.410;2023-07-29T03:48:02;22.40;98.50
19256;DHT22;9762;52.490;13.410;2023-07-29T03:50:28;22.40;98.40
19256;DHT22;9762;52.490;13.410;2023-07-29T03:52:55;22.40;98.40
19256;DHT22;9762;52.490;13.410;2023-07-29T03:55:20;22.30;98.40
19256;DHT22;9762;52.490;13.410;2023-07-29T03:57:46;22.30;98.50
19256;DHT22;9762;52.490;13.410;2023-07-29T04:00:12;22.30;98.50
19256;DHT22;9762;52.490;13.410;2023-07-29T04:02:38;22.30;98.60
19256;DHT22;9762;52.490;13.410;2023-07-29T04:05:05;22.30;98.60
19256;DHT22;9762;52.490;13.410;2023-07-29T04:07:34;22.30;98.60
19256;DHT22;9762;52.490;13.410;2023-07-29T04:09:59;22.30;98.70
19256;DHT22;9762;52.490;13.410;2023-07-29T04:12:26;22.30;98.60
19256;DHT22;9762;52.490;13.410;2023-07-29T04:14:51;22.30;98.70
19256;DHT22;9762;52.490;13.410;2023-07-29T04:17:17;22.30;98.70
19256;DHT22;9762;52.490;13.410;2023-07-29T04:19:43;22.30;98.70
19256;DHT22;9762;52.490;13.410;2023-07-29T04:22:08;22.30;98.70
19256;DHT22;9762;52.490;13.410;2023-07-29T04:24:34;22.40;98.70
19256;DHT22;9762;52.490;13.410;2023-07-29T04:26:59;22.40;98.80
19256;DHT22;9762;52.490;13.410;2023-07-29T04:29:25;22.40;99.10
19256;DHT22;9762;52.490;13.410;2023-07-29T04:31:51;22.40;99.00
19256;DHT22;9762;52.490;13.410;2023-07-29T04:34:19;22.50;98.90
19256;DHT22;9762;52.490;13.410;2023-07-29T04:36:46;22.50;98.70
19256;DHT22;9762;52.490;13.410;2023-07-29T04:39:12;22.60;98.70
19256;DHT22;9762;52.490;13.410;2023-07-29T04:41:37;22.60;98.70
19256;DHT22;9762;52.490;13.410;2023-07-29T04:44:03;22.70;98.60
19256;DHT22;9762;52.490;13.410;2023-07-29T04:46:29;22.70;98.50
19256;DHT22;9762;52.490;13.410;2023-07-29T04:48:55;22.80;98.30
19256;DHT22;9762;52.490;13.410;2023-07-29T04:51:20;22.80;98.30
19256;DHT22;9762;52.490;13.410;2023-07-29T04:53:46;22.90;98.10
19256;DHT22;9762;52.490;13.410;2023-07-29T04:56:12;22.90;98.10
19256;DHT22;9762;52.490;13.410;2023-07-29T04:58:37;23.00;98.00
19256;DHT22;9762;52.490;13.410;2023-07-29T05:01:04;23.00;98.00
19256;DHT22;9762;52.490;13.410;2023-07-29T05:03:29;23.00;98.10
19256;DHT22;9762;52.490;13.410;2023-07-29T05:05:55;23.10;98.10
19256;DHT22;9762;52.490;13.410;2023-07-29T05:08:22;23.10;98.00
19256;DHT22;9762;52.490;13.410;2023-07-29T05:10:51;23.10;98.00
19256;DHT22;9762;52.490;13.410;2023-07-29T05:13:18;23.20;98.00
19256;DHT22;9762;52.490;13.410;2023-07-29T05:15:44;23.20;97.80
19256;DHT22;9762;52.490;13.410;2023-07-29T05:18:11;23.20;97.70
19256;DHT22;9762;52.490;13.410;2023-07-29T05:20:37;23.30;97.80
19256;DHT22;9762;52.490;13.410;2023-07-29T05:23:02;23.30;97.70
19256;DHT22;9762;52.490;13.410;2023-07-29T05:25:28;23.30;97.70
19256;DHT22;9762;52.490;13.410;2023-07-29T05:27:54;23.30;97.70
19256;DHT22;9762;52.490;13.410;2023-07-29T05:30:20;23.40;97.80
19256;DHT22;9762;52.490;13.410;2023-07-29T05:32:45;23.40;97.80
19256;DHT22;9762;52.490;13.410;2023-07-29T05:35:11;23.40;97.60
19256;DHT22;9762;52.490;13.410;2023-07-29T05:37:39;23.50;97.60
19256;DHT22;9762;52.490;13.410;2023-07-29T05:40:06;23.50;97.50
19256;DHT22;9762;52.490;13.410;2023-07-29T05:42:33;23.50;97.40
19256;DHT22;9762;52.490;13.410;2023-07-29T05:44:58;23.60;97.30
19256;DHT22;9762;52.490;13.410;2023-07-29T05:47:24;23.60;97.50
19256;DHT22;9762;52.490;13.410;2023-07-29T05:49:50;23.60;97.40
19256;DHT22;9762;52.490;13.410;2023-07-29T05:52:15;23.60;97.50
19256;DHT22;9762;52.490;13.410;2023-07-29T05:54:41;23.60;97.50
19256;DHT22;9762;52.490;13.410;2023-07-29T05:57:09;23.60;97.50
19256;DHT22;9762;52.490;13.410;2023-07-29T05:59:35;23.60;97.40
19256;DHT22;9762;52.490;13.410;2023-07-29T06:02:00;23.70;97.40
19256;DHT22;9762;52.490;13.410;2023-07-29T06:04:26;23.80;97.50
19256;DHT22;9762;52.490;13.410;2023-07-29T06:06:52;23.80;97.60
19256;DHT22;9762;52.490;13.410;2023-07-29T06:09:18;23.80;97.50
19256;DHT22;9762;52.490;13.410;2023-07-29T06:11:43;23.80;97.60
19256;DHT22;9762;52.490;13.410;2023-07-29T06:14:09;23.90;97.60
19256;DHT22;9762;52.490;13.410;2023-07-29T06:16:35;23.80;98.00
19256;DHT22;9762;52.490;13.410;2023-07-29T06:19:00;23.80;98.00
19256;DHT22;9762;52.490;13.410;2023-07-29T06:21:26;23.90;97.80
19256;DHT22;9762;52.490;13.410;2023-07-29T06:23:51;23.90;97.80
19256;DHT22;9762;52.490;13.410;2023-07-29T06:26:17;23.90;98.00
19256;DHT22;9762;52.490;13.410;2023-07-29T06:28:43;24.00;97.90
19256;DHT22;9762;52.490;13.410;2023-07-29T06:31:09;24.00;97.90
19256;DHT22;9762;52.490;13.410;2023-07-29T06:33:34;24.00;97.80
19256;DHT22;9762;52.490;13.410;2023-07-29T06:36:00;24.10;97.70
19256;DHT22;9762;52.490;13.410;2023-07-29T06:38:25;24.10;98.00
19256;DHT22;9762;52.490;13.410;2023-07-29T06:40:51;24.20;97.80
19256;DHT22;9762;52.490;13.410;2023-07-29T06:43:18;24.20;97.60
19256;DHT22;9762;52.490;13.410;2023-07-29T06:45:43;24.20;97.60
19256;DHT22;9762;52.490;13.410;2023-07-29T06:48:09;24.40;98.00
19256;DHT22;9762;52.490;13.410;2023-07-29T06:50:35;24.20;97.90
19256;DHT22;9762;52.490;13.410;2023-07-29T06:53:00;24.30;97.80
19256;DHT22;9762;52.490;13.410;2023-07-29T06:55:26;24.30;98.00
19256;DHT22;9762;52.490;13.410;2023-07-29T06:57:51;24.30;97.90
19256;DHT22;9762;52.490;13.410;2023-07-29T07:00:17;24.40;97.80
19256;DHT22;9762;52.490;13.410;2023-07-29T07:02:43;24.40;97.80
19256;DHT22;9762;52.490;13.410;2023-07-29T07:05:09;24.50;97.60
19256;DHT22;9762;52.490;13.410;2023-07-29T07:07:34;24.50;97.70
19256;DHT22;9762;52.490;13.410;2023-07-29T07:10:00;24.60;97.50
19256;DHT22;9762;52.490;13.410;2023-07-29T07:12:26;24.60;97.40
19256;DHT22;9762;52.490;13.410;2023-07-29T07:14:52;24.60;97.30
19256;DHT22;9762;52.490;13.410;2023-07-29T07:17:17;24.70;97.30
19256;DHT22;9762;52.490;13.410;2023-07-29T07:19:43;24.70;97.20
19256;DHT22;9762;52.490;13.410;2023-07-29T07:22:09;24.80;97.10
19256;DHT22;9762;52.490;13.410;2023-07-29T07:24:35;24.80;97.20
19256;DHT22;9762;52.490;13.410;2023-07-29T07:27:01;24.80;97.20
19256;DHT22;9762;52.490;13.410;2023-07-29T07:29:27;24.90;97.30
19256;DHT22;9762;52.490;13.410;2023-07-29T07:31:53;24.90;97.20
19256;DHT22;9762;52.490;13.410;2023-07-29T07:34:23;24.90;97.10
19256;DHT22;9762;52.490;13.410;2023-07-29T07:36:49;24.90;97.10
19256;DHT22;9762;52.490;13.410;2023-07-29T07:39:15;25.00;97.00
19256;DHT22;9762;52.490;13.410;2023-07-29T07:41:41;25.10;97.10
19256;DHT22;9762;52.490;13.410;2023-07-29T07:44:07;25.10;97.10
19256;DHT22;9762;52.490;13.410;2023-07-29T07:46:33;25.20;96.70
19256;DHT22;9762;52.490;13.410;2023-07-29T07:48:58;25.20;96.50
19256;DHT22;9762;52.490;13.410;2023-07-29T07:51:24;25.30;96.30
19256;DHT22;9762;52.490;13.410;2023-07-29T07:53:50;25.30;96.10
19256;DHT22;9762;52.490;13.410;2023-07-29T07:56:15;25.40;96.00
19256;DHT22;9762;52.490;13.410;2023-07-29T07:58:41;25.50;95.80
19256;DHT22;9762;52.490;13.410;2023-07-29T08:01:08;25.60;95.50
19256;DHT22;9762;52.490;13.410;2023-07-29T08:03:35;25.50;95.60
19256;DHT22;9762;52.490;13.410;2023-07-29T08:06:01;25.60;94.90
19256;DHT22;9762;52.490;13.410;2023-07-29T08:08:28;25.60;95.10
19256;DHT22;9762;52.490;13.410;2023-07-29T08:10:54;25.70;94.80
19256;DHT22;9762;52.490;13.410;2023-07-29T08:13:21;25.70;94.80
19256;DHT22;9762;52.490;13.410;2023-07-29T08:15:48;25.70;94.80
19256;DHT22;9762;52.490;13.410;2023-07-29T08:18:14;25.80;94.80
19256;DHT22;9762;52.490;13.410;2023-07-29T08:20:41;25.80;94.90
19256;DHT22;9762;52.490;13.410;2023-07-29T08:23:06;25.90;94.60
19256;DHT22;9762;52.490;13.410;2023-07-29T08:25:32;26.00;94.40
19256;DHT22;9762;52.490;13.410;2023-07-29T08:27:58;26.10;94.30
19256;DHT22;9762;52.490;13.410;2023-07-29T08:30:23;26.10;94.20
19256;DHT22;9762;52.490;13.410;2023-07-29T08:32:49;26.20;94.10
19256;DHT22;9762;52.490;13.410;2023-07-29T08:35:15;26.30;94.20
19256;DHT22;9762;52.490;13.410;2023-07-29T08:37:41;26.30;94.00
19256;DHT22;9762;52.490;13.410;2023-07-29T08:40:07;26.30;94.10
19256;DHT22;9762;52.490;13.410;2023-07-29T08:42:33;26.40;93.80
19256;DHT22;9762;52.490;13.410;2023-07-29T08:45:07;26.50;93.70
19256;DHT22;9762;52.490;13.410;2023-07-29T08:47:33;26.50;93.60
19256;DHT22;9762;52.490;13.410;2023-07-29T08:49:59;26.60;93.30
19256;DHT22;9762;52.490;13.410;2023-07-29T08:52:26;26.60;93.30
19256;DHT22;9762;52.490;13.410;2023-07-29T08:54:53;26.60;93.00
19256;DHT22;9762;52.490;13.410;2023-07-29T08:57:20;26.60;92.80
19256;DHT22;9762;52.490;13.410;2023-07-29T08:59:46;26.70;93.00
19256;DHT22;9762;52.490;13.410;2023-07-29T09:02:12;26.70;92.80
19256;DHT22;9762;52.490;13.410;2023-07-29T09:04:37;26.80;92.80
19256;DHT22;9762;52.490;13.410;2023-07-29T09:07:04;26.80;92.70
19256;DHT22;9762;52.490;13.410;2023-07-29T09:09:30;26.90;92.60
19256;DHT22;9762;52.490;13.410;2023-07-29T09:11:56;26.90;92.70
19256;DHT22;9762;52.490;13.410;2023-07-29T09:14:23;27.00;92.50
19256;DHT22;9762;52.490;13.410;2023-07-29T09:16:49;27.10;92.40
19256;DHT22;9762;52.490;13.410;2023-07-29T09:19:15;27.10;92.20
19256;DHT22;9762;52.490;13.410;2023-07-29T09:21:41;27.20;92.00
19256;DHT22;9762;52.490;13.410;2023-07-29T09:24:07;27.20;92.00
19256;DHT22;9762;52.490;13.410;2023-07-29T09:26:33;27.20;91.90
19256;DHT22;9762;52.490;13.410;2023-07-29T09:29:00;27.20;92.00
19256;DHT22;9762;52.490;13.410;2023-07-29T09:31:27;27.30;91.80
19256;DHT22;9762;52.490;13.410;2023-07-29T09:34:01;27.40;91.80
19256;DHT22;9762;52.490;13.410;2023-07-29T09:36:27;27.50;91.60
19256;DHT22;9762;52.490;13.410;2023-07-29T09:38:56;27.50;91.60
19256;DHT22;9762;52.490;13.410;2023-07-29T09:41:25;27.60;91.40
19256;DHT22;9762;52.490;13.410;2023-07-29T09:44:04;27.70;91.20
19256;DHT22;9762;52.490;13.410;2023-07-29T09:46:35;27.70;91.00
19256;DHT22;9762;52.490;13.410;2023-07-29T09:49:05;27.70;90.90
19256;DHT22;9762;52.490;13.410;2023-07-29T09:51:32;27.70;90.90
19256;DHT22;9762;52.490;13.410;2023-07-29T09:54:02;27.80;90.80
19256;DHT22;9762;52.490;13.410;2023-07-29T09:56:28;27.80;90.60
19256;DHT22;9762;52.490;13.410;2023-07-29T09:58:57;27.80;90.60
19256;DHT22;9762;52.490;13.410;2023-07-29T10:01:23;27.90;90.60
19256;DHT22;9762;52.490;13.410;2023-07-29T10:03:49;27.90;90.60
19256;DHT22;9762;52.490;13.410;2023-07-29T10:06:15;27.90;90.60
19256;DHT22;9762;52.490;13.410;2023-07-29T10:08:43;27.90;90.50
19256;DHT22;9762;52.490;13.410;2023-07-29T10:11:10;27.90;90.40
19256;DHT22;9762;52.490;13.410;2023-07-29T10:13:36;28.00;90.60
19256;DHT22;9762;52.490;13.410;2023-07-29T10:16:03;28.00;90.40
19256;DHT22;9762;52.490;13.410;2023-07-29T10:18:33;28.00;90.10
19256;DHT22;9762;52.490;13.410;2023-07-29T10:21:00;28.10;90.20
19256;DHT22;9762;52.490;13.410;2023-07-29T10:23:27;28.10;93.10
19256;DHT22;9762;52.490;13.410;2023-07-29T10:26:04;28.10;96.10
19256;DHT22;9762;52.490;13.410;2023-07-29T10:28:31;28.20;96.50
19256;DHT22;9762;52.490;13.410;2023-07-29T10:30:57;28.20;96.20
19256;DHT22;9762;52.490;13.410;2023-07-29T10:33:23;28.20;96.20
19256;DHT22;9762;52.490;13.410;2023-07-29T10:35:50;28.20;96.20
19256;DHT22;9762;52.490;13.410;2023-07-29T10:38:16;28.20;95.90
19256;DHT22;9762;52.490;13.410;2023-07-29T10:40:55;28.20;95.80
19256;DHT22;9762;52.490;13.410;2023-07-29T10:45:55;28.00;95.90
19256;DHT22;9762;52.490;13.410;2023-07-29T10:53:53;28.00;96.30
19256;DHT22;9762;52.490;13.410;2023-07-29T10:56:36;28.00;96.30
19256;DHT22;9762;52.490;13.410;2023-07-29T11:01:39;28.00;95.80
19256;DHT22;9762;52.490;13.410;2023-07-29T11:17:40;27.90;93.60
19256;DHT22;9762;52.490;13.410;2023-07-29T11:20:06;27.90;94.40
19256;DHT22;9762;52.490;13.410;2023-07-29T11:22:34;27.70;96.60
19256;DHT22;9762;52.490;13.410;2023-07-29T11:25:00;27.40;97.40
19256;DHT22;9762;52.490;13.410;2023-07-29T11:27:25;27.10;92.30
19256;DHT22;9762;52.490;13.410;2023-07-29T11:29:57;27.00;92.50
19256;DHT22;9762;52.490;13.410;2023-07-29T11:32:24;26.90;96.10
19256;DHT22;9762;52.490;13.410;2023-07-29T11:34:50;26.80;96.80
19256;DHT22;9762;52.490;13.410;2023-07-29T11:37:16;26.80;97.70
19256;DHT22;9762;52.490;13.410;2023-07-29T11:39:43;26.70;97.90
19256;DHT22;9762;52.490;13.410;2023-07-29T11:42:16;26.70;98.00
19256;DHT22;9762;52.490;13.410;2023-07-29T11:44:42;26.70;98.20
19256;DHT22;9762;52.490;13.410;2023-07-29T11:47:12;26.60;98.10
19256;DHT22;9762;52.490;13.410;2023-07-29T11:49:41;26.60;98.00
19256;DHT22;9762;52.490;13.410;2023-07-29T11:52:10;26.60;98.40
19256;DHT22;9762;52.490;13.410;2023-07-29T11:54:37;26.50;98.40
19256;DHT22;9762;52.490;13.410;2023-07-29T11:57:09;26.60;98.50
19256;DHT22;9762;52.490;13.410;2023-07-29T11:59:36;26.50;98.60
19256;DHT22;9762;52.490;13.410;2023-07-29T12:02:06;26.50;98.90
19256;DHT22;9762;52.490;13.410;2023-07-29T12:04:33;26.40;99.20
19256;DHT22;9762;52.490;13.410;2023-07-29T12:07:00;26.40;99.10
19256;DHT22;9762;52.490;13.410;2023-07-29T12:09:26;26.40;99.10
19256;DHT22;9762;52.490;13.410;2023-07-29T12:11:53;26.40;99.10
19256;DHT22;9762;52.490;13.410;2023-07-29T12:14:19;26.40;99.00
19256;DHT22;9762;52.490;13.410;2023-07-29T12:16:44;26.30;99.40
19256;DHT22;9762;52.490;13.410;2023-07-29T12:19:14;26.40;99.10
19256;DHT22;9762;52.490;13.410;2023-07-29T12:21:43;26.40;99.00
19256;DHT22;9762;52.490;13.410;2023-07-29T12:24:08;26.30;99.10
19256;DHT22;9762;52.490;13.410;2023-07-29T12:26:36;26.30;99.50
19256;DHT22;9762;52.490;13.410;2023-07-29T12:29:15;26.30;99.40
19256;DHT22;9762;52.490;13.410;2023-07-29T12:31:42;26.30;99.40
19256;DHT22;9762;52.490;13.410;2023-07-29T12:34:08;26.30;99.50
19256;DHT22;9762;52.490;13.410;2023-07-29T12:36:45;26.30;99.90
19256;DHT22;9762;52.490;13.410;2023-07-29T12:39:25;26.30;99.90
19256;DHT22;9762;52.490;13.410;2023-07-29T12:41:53;26.30;99.90
19256;DHT22;9762;52.490;13.410;2023-07-29T12:44:19;26.30;99.90
19256;DHT22;9762;52.490;13.410;2023-07-29T12:46:45;26.30;99.90
19256;DHT22;9762;52.490;13.410;2023-07-29T12:49:10;26.30;99.90
19256;DHT22;9762;52.490;13.410;2023-07-29T12:51:36;26.40;99.90
19256;DHT22;9762;52.490;13.410;2023-07-29T12:54:03;26.50;99.90
19256;DHT22;9762;52.490;13.410;2023-07-29T12:56:30;26.50;99.90
19256;DHT22;9762;52.490;13.410;2023-07-29T12:58:57;26.70;99.90
19256;DHT22;9762;52.490;13.410;2023-07-29T13:01:23;26.90;99.90
19256;DHT22;9762;52.490;13.410;2023-07-29T13:03:49;27.10;99.90
19256;DHT22;9762;52.490;13.410;2023-07-29T13:06:15;27.40;99.90
19256;DHT22;9762;52.490;13.410;2023-07-29T13:08:44;27.60;94.70
19256;DHT22;9762;52.490;13.410;2023-07-29T13:11:10;27.80;94.40
19256;DHT22;9762;52.490;13.410;2023-07-29T13:13:36;28.00;93.70
19256;DHT22;9762;52.490;13.410;2023-07-29T13:16:01;28.20;92.90
19256;DHT22;9762;52.490;13.410;2023-07-29T13:18:27;28.30;92.90
19256;DHT22;9762;52.490;13.410;2023-07-29T13:20:54;28.40;92.30
19256;DHT22;9762;52.490;13.410;2023-07-29T13:23:19;28.50;91.30
19256;DHT22;9762;52.490;13.410;2023-07-29T13:25:45;28.50;90.80
19256;DHT22;9762;52.490;13.410;2023-07-29T13:28:11;28.50;90.80
19256;DHT22;9762;52.490;13.410;2023-07-29T13:30:42;28.50;90.50
19256;DHT22;9762;52.490;13.410;2023-07-29T13:33:07;28.50;90.50
19256;DHT22;9762;52.490;13.410;2023-07-29T13:35:33;28.50;90.60
19256;DHT22;9762;52.490;13.410;2023-07-29T13:38:00;28.50;90.50
19256;DHT22;9762;52.490;13.410;2023-07-29T13:40:26;28.60;91.10
19256;DHT22;9762;52.490;13.410;2023-07-29T13:42:52;28.70;91.30
19256;DHT22;9762;52.490;13.410;2023-07-29T13:45:18;28.90;90.90
19256;DHT22;9762;52.490;13.410;2023-07-29T13:47:43;29.10;90.30
19256;DHT22;9762;52.490;13.410;2023-07-29T13:50:09;29.30;89.00
19256;DHT22;9762;52.490;13.410;2023-07-29T13:52:36;29.50;87.00
19256;DHT22;9762;52.490;13.410;2023-07-29T13:55:02;29.60;87.10
19256;DHT22;9762;52.490;13.410;2023-07-29T13:57:27;29.90;88.50
19256;DHT22;9762;52.490;13.410;2023-07-29T13:59:53;30.00;83.40
19256;DHT22;9762;52.490;13.410;2023-07-29T14:02:19;30.10;82.30
19256;DHT22;9762;52.490;13.410;2023-07-29T14:04:44;30.20;81.40
19256;DHT22;9762;52.490;13.410;2023-07-29T14:07:10;30.30;81.00
19256;DHT22;9762;52.490;13.410;2023-07-29T14:09:35;30.30;81.80
19256;DHT22;9762;52.490;13.410;2023-07-29T14:12:02;30.40;92.70
19256;DHT22;9762;52.490;13.410;2023-07-29T14:14:28;30.30;93.50
19256;DHT22;9762;52.490;13.410;2023-07-29T14:16:54;30.30;93.60
19256;DHT22;9762;52.490;13.410;2023-07-29T14:19:20;30.40;93.80
19256;DHT22;9762;52.490;13.410;2023-07-29T14:21:45;30.40;93.40
19256;DHT22;9762;52.490;13.410;2023-07-29T14:24:11;30.50;93.40
19256;DHT22;9762;52.490;13.410;2023-07-29T14:26:36;30.50;93.40
19256;DHT22;9762;52.490;13.410;2023-07-29T14:29:02;30.60;92.40
19256;DHT22;9762;52.490;13.410;2023-07-29T14:31:28;30.70;91.50
19256;DHT22;9762;52.490;13.410;2023-07-29T14:33:53;30.80;91.20
19256;DHT22;9762;52.490;13.410;2023-07-29T14:36:19;30.90;91.30
19256;DHT22;9762;52.490;13.410;2023-07-29T14:38:44;31.00;93.10
19256;DHT22;9762;52.490;13.410;2023-07-29T14:41:10;31.10;92.90
19256;DHT22;9762;52.490;13.410;2023-07-29T14:43:35;31.20;82.70
19256;DHT22;9762;52.490;13.410;2023-07-29T14:46:02;31.30;91.20
19256;DHT22;9762;52.490;13.410;2023-07-29T14:48:27;31.30;89.20
19256;DHT22;9762;52.490;13.410;2023-07-29T14:50:53;31.40;88.00
19256;DHT22;9762;52.490;13.410;2023-07-29T14:53:19;31.40;86.70
19256;DHT22;9762;52.490;13.410;2023-07-29T14:55:45;31.40;85.80
19256;DHT22;9762;52.490;13.410;2023-07-29T14:58:11;31.50;84.70
19256;DHT22;9762;52.490;13.410;2023-07-29T15:00:36;31.50;84.20
19256;DHT22;9762;52.490;13.410;2023-07-29T15:03:02;31.50;84.00
19256;DHT22;9762;52.490;13.410;2023-07-29T15:05:28;31.40;76.00
19256;DHT22;9762;52.490;13.410;2023-07-29T15:07:54;31.40;74.40
19256;DHT22;9762;52.490;13.410;2023-07-29T15:10:20;31.30;74.60
19256;DHT22;9762;52.490;13.410;2023-07-29T15:12:46;31.20;74.80
19256;DHT22;9762;52.490;13.410;2023-07-29T15:15:12;31.00;75.00
19256;DHT22;9762;52.490;13.410;2023-07-29T15:17:38;30.90;75.90
19256;DHT22;9762;52.490;13.410;2023-07-29T15:20:04;30.80;76.00
19256;DHT22;9762;52.490;13.410;2023-07-29T15:22:30;30.50;76.60
19256;DHT22;9762;52.490;13.410;2023-07-29T15:24:59;30.30;76.70
19256;DHT22;9762;52.490;13.410;2023-07-29T15:27:29;30.10;77.50
19256;DHT22;9762;52.490;13.410;2023-07-29T15:29:55;30.00;77.80
19256;DHT22;9762;52.490;13.410;2023-07-29T15:32:20;29.80;78.50
19256;DHT22;9762;52.490;13.410;2023-07-29T15:34:47;29.60;79.20
19256;DHT22;9762;52.490;13.410;2023-07-29T15:37:13;29.50;80.10
19256;DHT22;9762;52.490;13.410;2023-07-29T15:39:39;29.30;79.90
19256;DHT22;9762;52.490;13.410;2023-07-29T15:42:04;28.90;75.70
19256;DHT22;9762;52.490;13.410;2023-07-29T15:44:30;28.60;77.30
19256;DHT22;9762;52.490;13.410;2023-07-29T15:46:56;28.20;78.00
19256;DHT22;9762;52.490;13.410;2023-07-29T15:49:22;27.90;78.40
19256;DHT22;9762;52.490;13.410;2023-07-29T15:51:48;27.60;81.80
19256;DHT22;9762;52.490;13.410;2023-07-29T15:54:13;27.50;79.60